sensor_id;sensor_type;location;lat;lon;timestamp;pressure;altitude;pressure_sealevel;temperature;humidity
57821;BME280;43649;49.474;8.466;2022-08-19T00:00:49;99988.88;;;22.07;66.70
57821;BME280;43649;49.474;8.466;2022-08-19T00:03:15;99993.78;;;22.17;66.19
57821;BME280;43649;49.474;8.466;2022-08-19T00:05:41;99994.34;;;22.07;66.54
57821;BME280;43649;49.474;8.466;2022-08-19T00:08:06;99976.91;;;22.02;66.84
57821;BME280;43649;49.474;8.466;2022-08-19T00:10:32;99966.50;;;22.04;66.96
57821;BME280;43649;49.474;8.466;2022-08-19T00:12:57;99963.31;;;22.07;66.95
57821;BME280;43649;49.474;8.466;2022-08-19T00:15:23;99954.84;;;22.08;67.08
57821;BME280;43649;49.474;8.466;2022-08-19T00:17:48;99943.22;;;21.95;67.19
57821;BME280;43649;49.474;8.466;2022-08-19T00:20:18;99947.25;;;22.10;67.15
57821;BME280;43649;49.474;8.466;2022-08-19T00:22:43;99942.97;;;21.96;67.75
57821;BME280;43649;49.474;8.466;2022-08-19T00:25:10;99937.25;;;21.98;68.00
57821;BME280;43649;49.474;8.466;2022-08-19T00:27:36;99942.25;;;21.89;67.87
57821;BME280;43649;49.474;8.466;2022-08-19T00:30:02;99942.53;;;21.81;68.67
57821;BME280;43649;49.474;8.466;2022-08-19T00:32:27;99949.03;;;21.86;68.58
57821;BME280;43649;49.474;8.466;2022-08-19T00:34:53;99950.63;;;21.94;68.61
57821;BME280;43649;49.474;8.466;2022-08-19T00:37:20;99956.38;;;21.86;69.19
57821;BME280;43649;49.474;8.466;2022-08-19T00:39:45;99944.59;;;21.85;69.22
57821;BME280;43649;49.474;8.466;2022-08-19T00:42:11;99940.41;;;21.83;68.59
57821;BME280;43649;49.474;8.466;2022-08-19T00:44:36;99944.38;;;21.87;68.49
57821;BME280;43649;49.474;8.466;2022-08-19T00:47:01;99945.88;;;21.83;67.92
57821;BME280;43649;49.474;8.466;2022-08-19T00:49:31;99940.56;;;21.88;68.05
57821;BME280;43649;49.474;8.466;2022-08-19T00:52:04;99931.47;;;21.87;67.99
57821;BME280;43649;49.474;8.466;2022-08-19T00:54:32;99924.09;;;21.88;67.60
57821;BME280;43649;49.474;8.466;2022-08-19T00:56:58;99928.97;;;21.86;68.08
57821;BME280;43649;49.474;8.466;2022-08-19T00:59:24;99936.38;;;21.85;67.54
57821;BME280;43649;49.474;8.466;2022-08-19T01:01:50;99935.00;;;21.76;67.91
57821;BME280;43649;49.474;8.466;2022-08-19T01:04:18;99942.84;;;21.91;67.52
57821;BME280;43649;49.474;8.466;2022-08-19T01:06:43;99946.06;;;21.88;67.39
57821;BME280;43649;49.474;8.466;2022-08-19T01:09:09;99936.59;;;21.84;67.65
57821;BME280;43649;49.474;8.466;2022-08-19T01:11:39;99943.06;;;21.89;67.72
57821;BME280;43649;49.474;8.466;2022-08-19T01:14:07;99934.31;;;21.81;67.89
57821;BME280;43649;49.474;8.466;2022-08-19T01:16:34;99906.81;;;21.69;67.98
57821;BME280;43649;49.474;8.466;2022-08-19T01:19:00;99911.84;;;21.72;68.06
57821;BME280;43649;49.474;8.466;2022-08-19T01:21:30;99905.06;;;21.74;67.48
57821;BME280;43649;49.474;8.466;2022-08-19T01:23:59;99923.34;;;21.81;67.38
57821;BME280;43649;49.474;8.466;2022-08-19T01:26:25;99939.94;;;21.86;67.56
57821;BME280;43649;49.474;8.466;2022-08-19T01:28:54;99943.38;;;21.81;67.63
57821;BME280;43649;49.474;8.466;2022-08-19T01:31:22;99950.31;;;21.84;67.18
57821;BME280;43649;49.474;8.466;2022-08-19T01:33:48;99956.38;;;21.86;67.44
57821;BME280;43649;49.474;8.466;2022-08-19T01:36:16;99956.47;;;21.79;67.18
57821;BME280;43649;49.474;8.466;2022-08-19T01:38:46;99946.34;;;21.80;67.60
57821;BME280;43649;49.474;8.466;2022-08-19T01:41:13;99944.38;;;21.87;67.01
57821;BME280;43649;49.474;8.466;2022-08-19T01:43:39;99943.00;;;21.78;67.19
57821;BME280;43649;49.474;8.466;2022-08-19T01:46:04;99947.44;;;21.79;67.44
57821;BME280;43649;49.474;8.466;2022-08-19T01:48:33;99956.72;;;21.78;67.68
57821;BME280;43649;49.474;8.466;2022-08-19T01:50:59;99946.56;;;21.78;67.46
57821;BME280;43649;49.474;8.466;2022-08-19T01:53:24;99947.25;;;21.73;67.47
57821;BME280;43649;49.474;8.466;2022-08-19T01:55:50;99930.91;;;21.67;67.36
57821;BME280;43649;49.474;8.466;2022-08-19T01:58:21;99938.44;;;21.71;67.62
57821;BME280;43649;49.474;8.466;2022-08-19T02:00:48;99935.75;;;21.65;67.70
57821;BME280;43649;49.474;8.466;2022-08-19T02:03:13;99939.94;;;21.67;67.54
57821;BME280;43649;49.474;8.466;2022-08-19T02:05:42;99942.31;;;21.64;67.85
57821;BME280;43649;49.474;8.466;2022-08-19T02:08:08;99933.31;;;21.56;68.21
57821;BME280;43649;49.474;8.466;2022-08-19T02:10:33;99943.59;;;21.61;67.94
57821;BME280;43649;49.474;8.466;2022-08-19T02:13:02;99946.94;;;21.63;68.26
57821;BME280;43649;49.474;8.466;2022-08-19T02:15:29;99946.19;;;21.56;68.49
57821;BME280;43649;49.474;8.466;2022-08-19T02:17:55;99953.28;;;21.64;68.13
57821;BME280;43649;49.474;8.466;2022-08-19T02:20:20;99960.97;;;21.55;68.47
57821;BME280;43649;49.474;8.466;2022-08-19T02:22:46;99947.72;;;21.52;68.96
57821;BME280;43649;49.474;8.466;2022-08-19T02:25:12;99934.84;;;21.52;68.77
57821;BME280;43649;49.474;8.466;2022-08-19T02:27:39;99943.69;;;21.54;69.01
57821;BME280;43649;49.474;8.466;2022-08-19T02:30:06;99946.34;;;21.61;68.85
57821;BME280;43649;49.474;8.466;2022-08-19T02:32:34;99957.63;;;21.53;68.96
57821;BME280;43649;49.474;8.466;2022-08-19T02:34:59;99962.94;;;21.66;68.59
57821;BME280;43649;49.474;8.466;2022-08-19T02:37:25;99971.25;;;21.60;69.07
57821;BME280;43649;49.474;8.466;2022-08-19T02:39:50;99960.50;;;21.58;69.08
57821;BME280;43649;49.474;8.466;2022-08-19T02:42:16;99955.94;;;21.52;69.13
57821;BME280;43649;49.474;8.466;2022-08-19T02:44:41;99963.25;;;21.58;69.25
57821;BME280;43649;49.474;8.466;2022-08-19T02:47:06;99956.53;;;21.54;69.17
57821;BME280;43649;49.474;8.466;2022-08-19T02:49:33;99968.38;;;21.54;69.54
57821;BME280;43649;49.474;8.466;2022-08-19T02:51:59;99968.13;;;21.56;69.61
57821;BME280;43649;49.474;8.466;2022-08-19T02:54:24;99958.28;;;21.48;69.55
57821;BME280;43649;49.474;8.466;2022-08-19T02:56:49;99962.66;;;21.49;69.54
57821;BME280;43649;49.474;8.466;2022-08-19T02:59:15;99962.66;;;21.56;69.19
57821;BME280;43649;49.474;8.466;2022-08-19T03:01:41;99969.78;;;21.57;69.00
57821;BME280;43649;49.474;8.466;2022-08-19T03:04:08;99953.97;;;21.59;68.92
57821;BME280;43649;49.474;8.466;2022-08-19T03:06:38;99954.66;;;21.54;69.06
57821;BME280;43649;49.474;8.466;2022-08-19T03:09:04;99946.31;;;21.43;69.10
57821;BME280;43649;49.474;8.466;2022-08-19T03:11:31;99953.41;;;21.50;68.82
57821;BME280;43649;49.474;8.466;2022-08-19T03:13:58;99943.56;;;21.43;69.33
57821;BME280;43649;49.474;8.466;2022-08-19T03:16:29;99937.00;;;21.44;69.22
57821;BME280;43649;49.474;8.466;2022-08-19T03:18:56;99949.66;;;21.45;69.38
57821;BME280;43649;49.474;8.466;2022-08-19T03:21:25;99937.84;;;21.44;68.92
57821;BME280;43649;49.474;8.466;2022-08-19T03:23:53;99929.53;;;21.32;69.44
57821;BME280;43649;49.474;8.466;2022-08-19T03:26:19;99950.94;;;21.42;69.84
57821;BME280;43649;49.474;8.466;2022-08-19T03:28:45;99950.69;;;21.44;69.58
57821;BME280;43649;49.474;8.466;2022-08-19T03:31:12;99958.09;;;21.43;70.11
57821;BME280;43649;49.474;8.466;2022-08-19T03:33:38;99956.38;;;21.49;69.97
57821;BME280;43649;49.474;8.466;2022-08-19T03:36:06;99953.66;;;21.42;70.88
57821;BME280;43649;49.474;8.466;2022-08-19T03:38:33;99945.69;;;21.40;70.66
57821;BME280;43649;49.474;8.466;2022-08-19T03:41:04;99952.59;;;21.50;70.49
57821;BME280;43649;49.474;8.466;2022-08-19T03:43:30;99955.59;;;21.42;70.49
57821;BME280;43649;49.474;8.466;2022-08-19T03:46:00;99937.56;;;21.27;70.46
57821;BME280;43649;49.474;8.466;2022-08-19T03:48:26;99955.25;;;21.31;71.04
57821;BME280;43649;49.474;8.466;2022-08-19T03:50:52;99949.53;;;21.33;72.24
57821;BME280;43649;49.474;8.466;2022-08-19T03:53:18;99954.88;;;21.28;71.56
57821;BME280;43649;49.474;8.466;2022-08-19T03:55:43;99961.19;;;21.28;71.66
57821;BME280;43649;49.474;8.466;2022-08-19T03:58:10;99967.72;;;21.27;71.11
57821;BME280;43649;49.474;8.466;2022-08-19T04:00:35;99969.03;;;21.25;71.46
57821;BME280;43649;49.474;8.466;2022-08-19T04:03:01;99954.91;;;21.21;72.55
57821;BME280;43649;49.474;8.466;2022-08-19T04:05:26;99947.00;;;21.13;71.86
57821;BME280;43649;49.474;8.466;2022-08-19T04:07:52;99971.25;;;21.34;70.97
57821;BME280;43649;49.474;8.466;2022-08-19T04:10:17;99974.50;;;21.25;71.56
57821;BME280;43649;49.474;8.466;2022-08-19T04:12:43;99981.03;;;21.24;72.23
57821;BME280;43649;49.474;8.466;2022-08-19T04:15:10;99967.56;;;21.22;72.48
57821;BME280;43649;49.474;8.466;2022-08-19T04:17:36;99965.44;;;21.24;71.71
57821;BME280;43649;49.474;8.466;2022-08-19T04:20:02;99983.56;;;21.25;71.75
57821;BME280;43649;49.474;8.466;2022-08-19T04:22:27;99972.59;;;21.25;71.95
57821;BME280;43649;49.474;8.466;2022-08-19T04:24:53;99965.44;;;21.24;71.44
57821;BME280;43649;49.474;8.466;2022-08-19T04:27:18;99968.72;;;21.33;69.90
57821;BME280;43649;49.474;8.466;2022-08-19T04:29:43;99967.13;;;21.25;69.97
57821;BME280;43649;49.474;8.466;2022-08-19T04:32:10;99958.63;;;21.33;69.54
57821;BME280;43649;49.474;8.466;2022-08-19T04:34:36;99966.84;;;21.33;69.76
57821;BME280;43649;49.474;8.466;2022-08-19T04:37:06;99963.09;;;21.28;69.83
57821;BME280;43649;49.474;8.466;2022-08-19T04:39:31;99960.13;;;21.29;69.51
57821;BME280;43649;49.474;8.466;2022-08-19T04:41:57;99968.16;;;21.24;69.93
57821;BME280;43649;49.474;8.466;2022-08-19T04:44:22;99953.28;;;21.20;70.00
57821;BME280;43649;49.474;8.466;2022-08-19T04:46:49;99964.50;;;21.12;70.32
57821;BME280;43649;49.474;8.466;2022-08-19T04:49:18;99962.38;;;21.14;70.37
57821;BME280;43649;49.474;8.466;2022-08-19T04:51:46;99970.38;;;21.15;70.18
57821;BME280;43649;49.474;8.466;2022-08-19T04:54:12;99971.88;;;21.11;70.28
57821;BME280;43649;49.474;8.466;2022-08-19T04:56:38;99969.06;;;21.18;70.38
57821;BME280;43649;49.474;8.466;2022-08-19T04:59:04;99976.25;;;21.19;70.27
57821;BME280;43649;49.474;8.466;2022-08-19T05:01:31;99981.56;;;21.14;70.70
57821;BME280;43649;49.474;8.466;2022-08-19T05:03:57;99980.66;;;21.20;70.53
57821;BME280;43649;49.474;8.466;2022-08-19T05:06:24;99981.13;;;21.17;70.73
57821;BME280;43649;49.474;8.466;2022-08-19T05:08:50;99982.41;;;21.14;70.67
57821;BME280;43649;49.474;8.466;2022-08-19T05:11:17;99975.78;;;21.22;70.46
57821;BME280;43649;49.474;8.466;2022-08-19T05:13:43;99973.25;;;21.46;69.68
57821;BME280;43649;49.474;8.466;2022-08-19T05:16:10;99939.38;;;21.15;69.93
57821;BME280;43649;49.474;8.466;2022-08-19T05:18:36;99967.13;;;21.25;70.30
57821;BME280;43649;49.474;8.466;2022-08-19T05:21:05;99987.31;;;21.31;70.44
57821;BME280;43649;49.474;8.466;2022-08-19T05:23:32;100003.31;;;21.34;70.49
57821;BME280;43649;49.474;8.466;2022-08-19T05:25:57;99999.97;;;21.32;70.70
57821;BME280;43649;49.474;8.466;2022-08-19T05:28:23;99990.72;;;21.26;70.61
57821;BME280;43649;49.474;8.466;2022-08-19T05:30:48;99977.13;;;21.38;70.26
57821;BME280;43649;49.474;8.466;2022-08-19T05:33:14;99990.53;;;21.53;70.00
57821;BME280;43649;49.474;8.466;2022-08-19T05:35:39;99992.25;;;21.40;70.28
57821;BME280;43649;49.474;8.466;2022-08-19T05:38:05;99997.94;;;21.46;69.88
57821;BME280;43649;49.474;8.466;2022-08-19T05:40:33;99991.44;;;21.40;69.88
57821;BME280;43649;49.474;8.466;2022-08-19T05:42:59;99989.59;;;21.34;70.18
57821;BME280;43649;49.474;8.466;2022-08-19T05:45:24;99996.84;;;21.47;69.90
57821;BME280;43649;49.474;8.466;2022-08-19T05:47:49;100011.81;;;21.51;69.81
57821;BME280;43649;49.474;8.466;2022-08-19T05:50:15;99987.41;;;21.43;69.90
57821;BME280;43649;49.474;8.466;2022-08-19T05:52:40;100021.44;;;21.60;69.84
57821;BME280;43649;49.474;8.466;2022-08-19T05:55:06;100033.06;;;21.55;69.89
57821;BME280;43649;49.474;8.466;2022-08-19T05:57:33;100036.03;;;21.54;70.07
57821;BME280;43649;49.474;8.466;2022-08-19T05:59:59;100040.78;;;21.65;69.39
57821;BME280;43649;49.474;8.466;2022-08-19T06:02:24;100045.16;;;21.73;69.46
57821;BME280;43649;49.474;8.466;2022-08-19T06:04:50;100053.53;;;21.78;69.24
57821;BME280;43649;49.474;8.466;2022-08-19T06:07:16;100063.50;;;21.72;69.28
57821;BME280;43649;49.474;8.466;2022-08-19T06:09:41;100060.81;;;21.66;69.68
57821;BME280;43649;49.474;8.466;2022-08-19T06:12:07;100067.09;;;21.73;69.24
57821;BME280;43649;49.474;8.466;2022-08-19T06:14:34;100073.06;;;21.63;69.49
57821;BME280;43649;49.474;8.466;2022-08-19T06:17:00;100073.53;;;21.60;69.49
57821;BME280;43649;49.474;8.466;2022-08-19T06:19:26;100077.22;;;21.72;69.41
57821;BME280;43649;49.474;8.466;2022-08-19T06:21:52;100079.06;;;21.79;68.93
57821;BME280;43649;49.474;8.466;2022-08-19T06:24:19;100081.34;;;21.82;68.85
57821;BME280;43649;49.474;8.466;2022-08-19T06:26:46;100075.41;;;21.85;68.86
57821;BME280;43649;49.474;8.466;2022-08-19T06:29:13;100071.59;;;21.86;69.19
57821;BME280;43649;49.474;8.466;2022-08-19T06:31:43;100076.66;;;21.89;68.73
57821;BME280;43649;49.474;8.466;2022-08-19T06:34:09;100065.72;;;21.82;68.45
57821;BME280;43649;49.474;8.466;2022-08-19T06:36:36;100087.16;;;21.92;68.35
57821;BME280;43649;49.474;8.466;2022-08-19T06:39:03;100082.13;;;21.89;68.33
57821;BME280;43649;49.474;8.466;2022-08-19T06:41:29;100079.53;;;21.94;68.13
57821;BME280;43649;49.474;8.466;2022-08-19T06:43:55;100085.81;;;22.01;67.93
57821;BME280;43649;49.474;8.466;2022-08-19T06:46:22;100078.03;;;21.98;68.09
57821;BME280;43649;49.474;8.466;2022-08-19T06:48:49;100063.00;;;22.01;67.92
57821;BME280;43649;49.474;8.466;2022-08-19T06:51:16;100057.75;;;21.99;67.77
57821;BME280;43649;49.474;8.466;2022-08-19T06:53:42;100082.59;;;22.04;67.76
57821;BME280;43649;49.474;8.466;2022-08-19T06:56:07;100095.69;;;22.02;68.02
57821;BME280;43649;49.474;8.466;2022-08-19T06:58:32;100093.28;;;22.13;68.00
57821;BME280;43649;49.474;8.466;2022-08-19T07:00:59;100098.75;;;22.13;67.73
57821;BME280;43649;49.474;8.466;2022-08-19T07:03:25;100104.66;;;22.16;67.69
57821;BME280;43649;49.474;8.466;2022-08-19T07:05:51;100079.00;;;22.04;67.87
57821;BME280;43649;49.474;8.466;2022-08-19T07:08:17;100096.69;;;22.08;68.09
57821;BME280;43649;49.474;8.466;2022-08-19T07:10:44;100089.16;;;22.03;68.84
57821;BME280;43649;49.474;8.466;2022-08-19T07:13:09;100084.88;;;22.07;68.36
57821;BME280;43649;49.474;8.466;2022-08-19T07:15:36;100087.19;;;22.10;68.19
57821;BME280;43649;49.474;8.466;2022-08-19T07:18:12;100083.06;;;22.20;67.79
57821;BME280;43649;49.474;8.466;2022-08-19T07:20:37;100091.28;;;22.20;68.31
57821;BME280;43649;49.474;8.466;2022-08-19T07:23:04;100093.13;;;22.26;67.40
57821;BME280;43649;49.474;8.466;2022-08-19T07:25:29;100094.53;;;22.35;67.24
57821;BME280;43649;49.474;8.466;2022-08-19T07:27:55;100101.09;;;22.34;67.07
57821;BME280;43649;49.474;8.466;2022-08-19T07:30:20;100086.75;;;22.32;67.37
57821;BME280;43649;49.474;8.466;2022-08-19T07:32:46;100100.56;;;22.44;66.90
57821;BME280;43649;49.474;8.466;2022-08-19T07:35:11;100100.16;;;22.59;66.43
57821;BME280;43649;49.474;8.466;2022-08-19T07:37:37;100101.22;;;22.58;66.34
57821;BME280;43649;49.474;8.466;2022-08-19T07:40:05;100108.69;;;22.69;66.06
57821;BME280;43649;49.474;8.466;2022-08-19T07:42:31;100090.69;;;22.73;65.44
57821;BME280;43649;49.474;8.466;2022-08-19T07:44:57;100086.25;;;22.72;65.40
57821;BME280;43649;49.474;8.466;2022-08-19T07:47:22;100104.13;;;22.63;65.74
57821;BME280;43649;49.474;8.466;2022-08-19T07:49:48;100106.56;;;22.71;65.67
57821;BME280;43649;49.474;8.466;2022-08-19T07:52:13;100099.75;;;22.74;65.64
57821;BME280;43649;49.474;8.466;2022-08-19T07:54:39;100097.91;;;22.86;65.65
57821;BME280;43649;49.474;8.466;2022-08-19T07:57:07;100101.91;;;23.02;65.16
57821;BME280;43649;49.474;8.466;2022-08-19T07:59:33;100102.94;;;23.20;64.57
57821;BME280;43649;49.474;8.466;2022-08-19T08:01:59;100097.50;;;23.31;64.13
57821;BME280;43649;49.474;8.466;2022-08-19T08:04:24;100100.94;;;23.27;63.63
57821;BME280;43649;49.474;8.466;2022-08-19T08:06:50;100094.50;;;23.33;63.27
57821;BME280;43649;49.474;8.466;2022-08-19T08:09:17;100101.66;;;23.22;63.12
57821;BME280;43649;49.474;8.466;2022-08-19T08:11:46;100098.84;;;23.10;64.01
57821;BME280;43649;49.474;8.466;2022-08-19T08:14:15;100097.91;;;23.17;63.97
57821;BME280;43649;49.474;8.466;2022-08-19T08:16:41;100095.22;;;22.98;64.38
57821;BME280;43649;49.474;8.466;2022-08-19T08:19:07;100092.81;;;23.02;63.92
57821;BME280;43649;49.474;8.466;2022-08-19T08:21:33;100092.75;;;23.08;63.54
57821;BME280;43649;49.474;8.466;2022-08-19T08:23:58;100087.25;;;23.08;63.86
57821;BME280;43649;49.474;8.466;2022-08-19T08:26:24;100099.13;;;23.21;63.37
57821;BME280;43649;49.474;8.466;2022-08-19T08:28:50;100097.72;;;23.30;63.40
57821;BME280;43649;49.474;8.466;2022-08-19T08:31:17;100092.19;;;23.18;63.50
57821;BME280;43649;49.474;8.466;2022-08-19T08:33:43;100094.81;;;23.13;63.68
57821;BME280;43649;49.474;8.466;2022-08-19T08:36:08;100100.16;;;23.38;63.11
57821;BME280;43649;49.474;8.466;2022-08-19T08:38:34;100087.09;;;23.45;62.87
57821;BME280;43649;49.474;8.466;2022-08-19T08:41:05;100101.97;;;23.56;61.91
57821;BME280;43649;49.474;8.466;2022-08-19T08:43:35;100094.91;;;23.72;61.86
57821;BME280;43649;49.474;8.466;2022-08-19T08:46:05;100110.88;;;23.94;61.25
57821;BME280;43649;49.474;8.466;2022-08-19T08:48:37;100097.97;;;23.94;60.23
57821;BME280;43649;49.474;8.466;2022-08-19T08:51:09;100096.84;;;24.19;59.67
57821;BME280;43649;49.474;8.466;2022-08-19T08:53:36;100094.94;;;24.19;59.55
57821;BME280;43649;49.474;8.466;2022-08-19T08:56:04;100105.34;;;24.17;59.64
57821;BME280;43649;49.474;8.466;2022-08-19T08:58:36;100107.00;;;24.42;58.71
57821;BME280;43649;49.474;8.466;2022-08-19T09:01:09;100117.66;;;24.38;59.13
57821;BME280;43649;49.474;8.466;2022-08-19T09:03:37;100120.63;;;24.49;59.65
57821;BME280;43649;49.474;8.466;2022-08-19T09:06:06;100115.38;;;24.47;59.07
57821;BME280;43649;49.474;8.466;2022-08-19T09:08:40;100115.03;;;24.32;59.69
57821;BME280;43649;49.474;8.466;2022-08-19T09:11:10;100110.34;;;24.32;59.53
57821;BME280;43649;49.474;8.466;2022-08-19T09:13:46;100102.78;;;24.51;58.77
57821;BME280;43649;49.474;8.466;2022-08-19T09:16:18;100102.31;;;24.54;59.11
57821;BME280;43649;49.474;8.466;2022-08-19T09:18:49;100092.25;;;24.48;58.72
57821;BME280;43649;49.474;8.466;2022-08-19T09:21:15;100091.78;;;24.51;58.05
57821;BME280;43649;49.474;8.466;2022-08-19T09:23:41;100102.09;;;24.44;57.77
57821;BME280;43649;49.474;8.466;2022-08-19T09:26:08;100098.75;;;24.42;58.16
57821;BME280;43649;49.474;8.466;2022-08-19T09:28:33;100103.84;;;24.50;58.29
57821;BME280;43649;49.474;8.466;2022-08-19T09:30:59;100101.22;;;24.55;58.17
57821;BME280;43649;49.474;8.466;2022-08-19T09:33:24;100106.03;;;24.60;57.76
57821;BME280;43649;49.474;8.466;2022-08-19T09:36:01;100101.94;;;24.63;58.51
57821;BME280;43649;49.474;8.466;2022-08-19T09:38:27;100100.47;;;24.72;57.67
57821;BME280;43649;49.474;8.466;2022-08-19T09:40:52;100093.16;;;24.78;56.97
57821;BME280;43649;49.474;8.466;2022-08-19T09:43:18;100097.63;;;24.67;57.96
57821;BME280;43649;49.474;8.466;2022-08-19T09:45:43;100110.31;;;24.68;58.03
57821;BME280;43649;49.474;8.466;2022-08-19T09:48:08;100091.66;;;24.58;58.27
57821;BME280;43649;49.474;8.466;2022-08-19T09:50:34;100104.41;;;24.76;58.15
57821;BME280;43649;49.474;8.466;2022-08-19T09:53:01;100098.66;;;24.78;57.31
57821;BME280;43649;49.474;8.466;2022-08-19T09:55:26;100106.09;;;24.77;57.26
57821;BME280;43649;49.474;8.466;2022-08-19T09:57:53;100089.91;;;24.81;56.80
57821;BME280;43649;49.474;8.466;2022-08-19T10:00:19;100094.56;;;24.80;57.35
57821;BME280;43649;49.474;8.466;2022-08-19T10:02:45;100097.66;;;25.13;56.34
57821;BME280;43649;49.474;8.466;2022-08-19T10:05:10;100097.91;;;25.11;55.81
57821;BME280;43649;49.474;8.466;2022-08-19T10:07:35;100096.19;;;25.22;55.75
57821;BME280;43649;49.474;8.466;2022-08-19T10:10:03;100083.72;;;25.19;55.88
57821;BME280;43649;49.474;8.466;2022-08-19T10:12:28;100087.75;;;25.29;55.49
57821;BME280;43649;49.474;8.466;2022-08-19T10:14:54;100098.56;;;25.30;54.99
57821;BME280;43649;49.474;8.466;2022-08-19T10:17:19;100100.09;;;25.09;55.27
57821;BME280;43649;49.474;8.466;2022-08-19T10:19:45;100091.19;;;25.19;54.68
57821;BME280;43649;49.474;8.466;2022-08-19T10:22:11;100102.75;;;25.33;54.32
57821;BME280;43649;49.474;8.466;2022-08-19T10:24:36;100087.63;;;25.35;53.57
57821;BME280;43649;49.474;8.466;2022-08-19T10:27:03;100092.03;;;25.53;53.54
57821;BME280;43649;49.474;8.466;2022-08-19T10:29:29;100088.06;;;25.61;53.50
57821;BME280;43649;49.474;8.466;2022-08-19T10:31:55;100091.06;;;25.76;53.24
57821;BME280;43649;49.474;8.466;2022-08-19T10:34:21;100104.25;;;25.57;56.19
57821;BME280;43649;49.474;8.466;2022-08-19T10:36:46;100084.28;;;25.33;56.52
57821;BME280;43649;49.474;8.466;2022-08-19T10:39:12;100092.09;;;25.24;56.15
57821;BME280;43649;49.474;8.466;2022-08-19T10:41:38;100091.69;;;25.16;56.26
57821;BME280;43649;49.474;8.466;2022-08-19T10:44:07;100089.75;;;25.16;55.82
57821;BME280;43649;49.474;8.466;2022-08-19T10:46:36;100081.66;;;25.26;55.84
57821;BME280;43649;49.474;8.466;2022-08-19T10:49:03;100082.72;;;25.25;55.02
57821;BME280;43649;49.474;8.466;2022-08-19T10:51:29;100079.00;;;25.32;54.94
57821;BME280;43649;49.474;8.466;2022-08-19T10:53:55;100077.25;;;25.42;55.63
57821;BME280;43649;49.474;8.466;2022-08-19T10:56:21;100075.50;;;25.53;54.80
57821;BME280;43649;49.474;8.466;2022-08-19T10:58:46;100075.34;;;25.43;54.31
57821;BME280;43649;49.474;8.466;2022-08-19T11:01:13;100084.53;;;25.32;54.08
57821;BME280;43649;49.474;8.466;2022-08-19T11:03:39;100086.31;;;25.26;54.29
57821;BME280;43649;49.474;8.466;2022-08-19T11:06:06;100068.06;;;25.08;53.42
57821;BME280;43649;49.474;8.466;2022-08-19T11:08:33;100082.84;;;25.31;52.90
57821;BME280;43649;49.474;8.466;2022-08-19T11:11:00;100079.19;;;25.59;51.63
57821;BME280;43649;49.474;8.466;2022-08-19T11:13:26;100068.00;;;25.66;52.08
57821;BME280;43649;49.474;8.466;2022-08-19T11:15:59;100043.56;;;25.57;53.19
57821;BME280;43649;49.474;8.466;2022-08-19T11:18:26;100041.56;;;25.53;52.16
57821;BME280;43649;49.474;8.466;2022-08-19T11:20:52;100038.22;;;25.68;51.44
57821;BME280;43649;49.474;8.466;2022-08-19T11:23:17;100040.16;;;25.67;52.13
57821;BME280;43649;49.474;8.466;2022-08-19T11:25:43;100029.06;;;25.84;53.26
57821;BME280;43649;49.474;8.466;2022-08-19T11:28:08;100042.16;;;25.94;49.04
57821;BME280;43649;49.474;8.466;2022-08-19T11:30:34;100024.97;;;25.87;48.72
57821;BME280;43649;49.474;8.466;2022-08-19T11:32:59;100027.13;;;25.85;48.62
57821;BME280;43649;49.474;8.466;2022-08-19T11:35:26;99997.75;;;25.73;48.36
57821;BME280;43649;49.474;8.466;2022-08-19T11:37:51;100023.16;;;25.75;49.37
57821;BME280;43649;49.474;8.466;2022-08-19T11:40:17;100012.72;;;25.60;50.26
57821;BME280;43649;49.474;8.466;2022-08-19T11:42:42;100019.22;;;25.71;51.05
57821;BME280;43649;49.474;8.466;2022-08-19T11:45:09;100022.13;;;25.99;51.21
57821;BME280;43649;49.474;8.466;2022-08-19T11:47:34;100022.34;;;26.14;50.14
57821;BME280;43649;49.474;8.466;2022-08-19T11:49:59;100021.97;;;26.27;49.14
57821;BME280;43649;49.474;8.466;2022-08-19T11:52:26;100015.13;;;26.35;48.97
57821;BME280;43649;49.474;8.466;2022-08-19T11:54:52;100025.97;;;26.42;48.60
57821;BME280;43649;49.474;8.466;2022-08-19T11:57:17;100024.31;;;26.41;46.70
57821;BME280;43649;49.474;8.466;2022-08-19T11:59:47;100012.75;;;26.44;47.01
57821;BME280;43649;49.474;8.466;2022-08-19T12:02:13;100027.00;;;26.58;47.45
57821;BME280;43649;49.474;8.466;2022-08-19T12:04:38;100025.66;;;26.60;46.16
57821;BME280;43649;49.474;8.466;2022-08-19T12:07:04;100028.94;;;26.57;46.04
57821;BME280;43649;49.474;8.466;2022-08-19T12:09:30;100025.03;;;26.75;46.95
57821;BME280;43649;49.474;8.466;2022-08-19T12:11:56;100026.38;;;26.73;46.61
57821;BME280;43649;49.474;8.466;2022-08-19T12:14:21;100024.84;;;26.87;44.85
57821;BME280;43649;49.474;8.466;2022-08-19T12:16:47;100016.78;;;26.80;43.92
57821;BME280;43649;49.474;8.466;2022-08-19T12:19:12;100025.84;;;26.76;43.56
57821;BME280;43649;49.474;8.466;2022-08-19T12:21:38;100024.69;;;26.72;44.03
57821;BME280;43649;49.474;8.466;2022-08-19T12:24:04;100019.16;;;26.72;44.12
57821;BME280;43649;49.474;8.466;2022-08-19T12:26:31;100026.75;;;26.81;43.65
57821;BME280;43649;49.474;8.466;2022-08-19T12:28:57;100017.41;;;26.88;43.77
57821;BME280;43649;49.474;8.466;2022-08-19T12:31:23;100026.56;;;26.93;44.21
57821;BME280;43649;49.474;8.466;2022-08-19T12:33:48;100028.31;;;26.99;44.30
57821;BME280;43649;49.474;8.466;2022-08-19T12:36:15;100018.47;;;26.87;43.26
57821;BME280;43649;49.474;8.466;2022-08-19T12:38:41;100017.00;;;27.06;42.79
57821;BME280;43649;49.474;8.466;2022-08-19T12:41:09;100018.41;;;27.09;42.72
57821;BME280;43649;49.474;8.466;2022-08-19T12:43:36;100022.91;;;27.15;41.65
57821;BME280;43649;49.474;8.466;2022-08-19T12:46:02;100020.34;;;27.08;41.51
57821;BME280;43649;49.474;8.466;2022-08-19T12:48:28;100025.66;;;27.15;41.39
57821;BME280;43649;49.474;8.466;2022-08-19T12:50:53;100031.19;;;27.15;41.48